This demonstration page uses our WeatherBlox Daily Observations layout. Learn more.

Left ArrowRight Arrow

36.17497, -115.13722

Hourly Observations for May 15, 2016

Temp ( °F °C ) Dew Point ( °F °C ) Humidity (%) Winds ( mph kmh ) Pressure ( in mb ) Visibility ( mi km ) Precip ( " mm )
12:53 am 00:53 Clear 79 26.1 33 0.6 19 19 SSW 15 24 29.65 1004 10 16.0934 0 0
1:53 am 01:53 Clear 78 25.6 31 -0.6 18 18 SSW 10 17 29.64 1004 10 16.0934 0 0
2:53 am 02:53 Clear 76 24.4 29 -1.7 18 18 SSW 12 19 29.63 1004 10 16.0934 0 0
3:53 am 03:53 Clear 75 23.9 28 -2.2 18 18 S 16 26 29.63 1004 10 16.0934 0 0
4:53 am 04:53 Clear 74 23.3 27 -2.8 17 17 S 12 19 29.63 1004 10 16.0934 0 0
5:53 am 05:53 Sunny 73 22.8 28 -2.2 19 19 WSW 10 17 29.65 1004 10 16.0934 0 0
6:53 am 06:53 Sunny 72 22.2 31 -0.6 22 22 Calm 29.68 1005 10 16.0934 0 0
7:53 am 07:53 Sunny 74 23.3 35 1.7 24 24 SSW 10 17 29.69 1005 10 16.0934 0 0
8:53 am 08:53 Sunny 76 24.4 35 1.7 23 23 SW 14 22 29.7 1006 10 16.0934 0 0
9:53 am 09:53 Sunny 77 25 34 1.1 21 21 S 10 17 29.69 1006 10 16.0934 0 0
10:53 am 10:53 Sunny 80 26.7 33 0.6 18 18 SSE 9 15 29.7 1006 10 16.0934 0 0
11:53 am 11:53 Sunny 82 27.8 32 0 16 16 SSE 6 9 29.68 1005 10 16.0934 0 0
12:53 pm 12:53 Sunny 84 28.9 32 0 15 15 SE 8 13 29.67 1005 10 16.0934 0 0
1:53 pm 13:53 Sunny 85 29.4 31 -0.6 14 14 Calm 29.65 1004 10 16.0934 0 0
2:53 pm 14:53 Sunny 89 31.7 25 -3.9 10 10 VRB 7 11 29.63 1004 10 16.0934 0 0
3:53 pm 15:53 Sunny 89 31.7 23 -5 9 9 VRB 7 11 29.61 1003 10 16.0934 0 0
4:53 pm 16:53 Sunny 90 32.2 19 -7.2 7 7 NNW 13 20 29.6 1003 10 16.0934 0 0
5:53 pm 17:53 Sunny 89 31.7 15 -9.4 6 6 N 9 15 29.6 1002 10 16.0934 0 0
6:53 pm 18:53 Sunny 88 31.1 13 -10.6 6 6 NNW 21 33 29.6 1002 10 16.0934 0 0
7:53 pm 19:53 Clear 85 29.4 17 -8.3 8 8 NNW 13 20 29.62 1003 10 16.0934 0 0
8:53 pm 20:53 Clear 82 27.8 20 -6.7 10 10 NNW 9 15 29.63 1003 10 16.0934 0 0
9:53 pm 21:53 Clear 82 27.8 21 -6.1 10 10 NNW 16 26 29.65 1004 10 16.0934 0 0
10:53 pm 22:53 Clear 80 26.7 21 -6.1 11 11 NW 17 28 29.66 1005 10 16.0934 0 0
11:53 pm 23:53 Clear 78 25.6 22 -5.6 12 12 NW 8 13 29.69 1005 10 16.0934 0 0

Powered by AerisWeather